Time;durP1;ratioP1;P1;durP2;ratioP2;P2;SDS_P1;SDS_P2;PMS_P1;PMS_P2;Temp;Humidity;BMP_temperature;BMP_pressure;BME280_temperature;BME280_humidity;BME280_pressure;Samples;Min_cycle;Max_cycle;Signal;HPM_P1;HPM_P2
2023/03/03 00:00:40;;;;;;;5.13;1.50;;;;;;;;;;5009624;28;20088;-76
2023/03/03 00:03:08;;;;;;;5.50;2.47;;;;;;;;;;5012620;28;20038;-77
2023/03/03 00:05:34;;;;;;;3.83;2.00;;;;;;;;;;5007321;28;20492;-76
2023/03/03 00:08:00;;;;;;;4.15;1.77;;;;;;;;;;5010600;28;20116;-76
2023/03/03 00:10:26;;;;;;;3.20;1.48;;;;;;;;;;5005618;28;20033;-77
2023/03/03 00:12:51;;;;;;;3.40;1.33;;;;;;;;;;5014453;28;20030;-77
2023/03/03 00:15:22;;;;;;;7.35;1.73;;;;;;;;;;5016023;28;20069;-77
2023/03/03 00:17:47;;;;;;;3.38;1.50;;;;;;;;;;5031539;28;20026;-76
2023/03/03 00:20:28;;;;;;;6.50;1.73;;;;;;;;;;4992877;28;20048;-76
2023/03/03 00:22:53;;;;;;;5.07;1.63;;;;;;;;;;5016065;28;20044;-77
2023/03/03 00:25:29;;;;;;;4.80;1.60;;;;;;;;;;5015732;28;20116;-77
2023/03/03 00:27:59;;;;;;;1.92;1.20;;;;;;;;;;5008181;28;20038;-76
2023/03/03 00:30:25;;;;;;;3.53;1.40;;;;;;;;;;5030972;28;20401;-77
2023/03/03 00:32:52;;;;;;;4.22;1.70;;;;;;;;;;5002240;28;20034;-77
2023/03/03 00:35:25;;;;;;;2.65;1.50;;;;;;;;;;5027937;28;20405;-77
2023/03/03 00:37:56;;;;;;;2.85;1.60;;;;;;;;;;5015867;28;20046;-77
2023/03/03 00:40:27;;;;;;;5.25;1.70;;;;;;;;;;5015597;28;20393;-77
2023/03/03 00:42:54;;;;;;;3.67;1.40;;;;;;;;;;5015634;28;20036;-77
2023/03/03 00:45:48;;;;;;;6.30;1.80;;;;;;;;;;5008702;28;20040;-77
2023/03/03 00:48:26;;;;;;;4.07;1.67;;;;;;;;;;5010049;28;20420;-77
2023/03/03 00:50:57;;;;;;;5.25;1.75;;;;;;;;;;5015296;28;20045;-77
2023/03/03 00:53:25;;;;;;;3.85;1.50;;;;;;;;;;5009867;28;20112;-77
2023/03/03 00:55:52;;;;;;;3.17;1.73;;;;;;;;;;5026030;28;20084;-78
2023/03/03 00:58:20;;;;;;;4.30;1.50;;;;;;;;;;5015268;28;20125;-77
2023/03/03 01:00:47;;;;;;;2.65;1.45;;;;;;;;;;5013245;28;20491;-77
2023/03/03 01:03:15;;;;;;;4.10;1.70;;;;;;;;;;5008841;28;20038;-77
2023/03/03 01:05:40;;;;;;;2.97;1.45;;;;;;;;;;5005713;28;20386;-76
2023/03/03 01:08:06;;;;;;;3.45;1.58;;;;;;;;;;5006199;28;20038;-77
2023/03/03 01:10:35;;;;;;;4.15;1.40;;;;;;;;;;5027443;28;20033;-77
2023/03/03 01:13:02;;;;;;;3.75;1.60;;;;;;;;;;5003922;28;20037;-77
2023/03/03 01:15:27;;;;;;;5.15;1.50;;;;;;;;;;5009184;28;20034;-76
2023/03/03 01:17:54;;;;;;;2.75;1.70;;;;;;;;;;5002621;28;20034;-77
2023/03/03 01:20:19;;;;;;;2.72;1.52;;;;;;;;;;5006805;28;20038;-77
2023/03/03 01:22:45;;;;;;;5.22;1.70;;;;;;;;;;5006895;28;20045;-77
2023/03/03 01:25:10;;;;;;;6.28;1.85;;;;;;;;;;5012904;28;20018;-76
2023/03/03 01:27:36;;;;;;;5.80;1.63;;;;;;;;;;5029387;28;20048;-77
2023/03/03 01:30:03;;;;;;;3.00;1.70;;;;;;;;;;5013592;28;20992;-77
2023/03/03 01:32:29;;;;;;;5.88;2.03;;;;;;;;;;5007956;28;20086;-76
2023/03/03 01:34:54;;;;;;;4.28;1.80;;;;;;;;;;5014501;28;20116;-77
2023/03/03 01:37:20;;;;;;;3.00;1.70;;;;;;;;;;5028934;28;20042;-76
2023/03/03 01:39:53;;;;;;;2.58;1.48;;;;;;;;;;5005814;28;20038;-77
2023/03/03 01:42:19;;;;;;;4.30;1.40;;;;;;;;;;5009158;28;20449;-78
2023/03/03 01:44:45;;;;;;;4.28;1.65;;;;;;;;;;5006935;28;20038;-77
2023/03/03 01:47:23;;;;;;;6.90;2.08;;;;;;;;;;5028340;28;20032;-77
2023/03/03 01:49:54;;;;;;;9.40;1.73;;;;;;;;;;5010111;28;20034;-77
2023/03/03 01:52:30;;;;;;;4.30;1.60;;;;;;;;;;5012550;28;20049;-77
2023/03/03 01:55:02;;;;;;;5.63;1.60;;;;;;;;;;5012813;28;20053;-76
2023/03/03 01:57:35;;;;;;;8.93;1.90;;;;;;;;;;5012469;28;20427;-77
2023/03/03 02:00:03;;;;;;;6.28;1.60;;;;;;;;;;5014041;28;20398;-76
2023/03/03 02:02:28;;;;;;;8.40;1.70;;;;;;;;;;5012576;28;20109;-76
2023/03/03 02:04:54;;;;;;;7.05;1.70;;;;;;;;;;5012685;28;20431;-77
2023/03/03 02:07:21;;;;;;;4.55;1.60;;;;;;;;;;4999309;28;20042;-76
2023/03/03 02:10:06;;;;;;;9.88;1.90;;;;;;;;;;5012785;28;20061;-77
2023/03/03 02:12:35;;;;;;;3.20;1.42;;;;;;;;;;5005471;28;20073;-76
2023/03/03 02:15:01;;;;;;;4.93;1.92;;;;;;;;;;5005570;28;20034;-77
2023/03/03 02:17:26;;;;;;;3.75;1.45;;;;;;;;;;5013940;28;20034;-76
2023/03/03 02:20:31;;;;;;;4.70;1.52;;;;;;;;;;4999479;28;20042;-77
2023/03/03 02:23:01;;;;;;;2.13;0.98;;;;;;;;;;5013196;28;20060;-76
2023/03/03 02:25:42;;;;;;;6.47;1.38;;;;;;;;;;5026517;28;20034;-76
2023/03/03 02:28:07;;;;;;;2.47;1.58;;;;;;;;;;5010834;28;20121;-76
2023/03/03 02:30:37;;;;;;;3.55;1.67;;;;;;;;;;5028652;28;20112;-76
2023/03/03 02:33:03;;;;;;;6.35;2.05;;;;;;;;;;5004815;28;20528;-76
2023/03/03 02:35:34;;;;;;;3.42;1.75;;;;;;;;;;5007905;28;20022;-76
2023/03/03 02:38:36;;;;;;;3.08;1.02;;;;;;;;;;5013718;28;20034;-77
2023/03/03 02:41:26;;;;;;;6.43;1.77;;;;;;;;;;5012461;28;20107;-76
2023/03/03 02:43:58;;;;;;;5.85;1.83;;;;;;;;;;5011265;28;20045;-77
2023/03/03 02:46:24;;;;;;;2.53;1.38;;;;;;;;;;5009391;28;20030;-76
2023/03/03 02:48:49;;;;;;;5.60;1.45;;;;;;;;;;5004694;28;20068;-76
2023/03/03 02:51:15;;;;;;;8.13;1.77;;;;;;;;;;5008983;28;20046;-76
2023/03/03 02:53:40;;;;;;;2.35;1.42;;;;;;;;;;5009987;28;20229;-76
2023/03/03 02:56:08;;;;;;;2.60;1.63;;;;;;;;;;5013676;28;20037;-78
2023/03/03 02:58:34;;;;;;;4.30;1.45;;;;;;;;;;5013427;28;20038;-76
2023/03/03 03:01:00;;;;;;;3.60;1.50;;;;;;;;;;5012000;28;20116;-76
2023/03/03 03:03:25;;;;;;;5.05;1.70;;;;;;;;;;5026363;28;20105;-77
2023/03/03 03:05:51;;;;;;;3.88;1.17;;;;;;;;;;5012439;28;20038;-76
2023/03/03 03:08:16;;;;;;;2.47;1.67;;;;;;;;;;5011893;28;20592;-76
2023/03/03 03:10:42;;;;;;;5.63;1.70;;;;;;;;;;5013073;28;20394;-76
2023/03/03 03:13:07;;;;;;;2.75;1.27;;;;;;;;;;5007407;28;20122;-76
2023/03/03 03:15:34;;;;;;;3.42;1.65;;;;;;;;;;5013061;28;20062;-76
2023/03/03 03:18:00;;;;;;;4.88;1.80;;;;;;;;;;5002529;28;20026;-76
2023/03/03 03:20:26;;;;;;;5.53;1.70;;;;;;;;;;5012979;28;20038;-76
2023/03/03 03:22:51;;;;;;;4.13;1.60;;;;;;;;;;5009625;28;20040;-77
2023/03/03 03:25:17;;;;;;;5.57;1.70;;;;;;;;;;5010918;28;20378;-76
2023/03/03 03:27:42;;;;;;;3.13;1.50;;;;;;;;;;5002503;28;20043;-76
2023/03/03 03:30:08;;;;;;;5.63;1.38;;;;;;;;;;4998158;28;20037;-76
2023/03/03 03:32:33;;;;;;;2.45;1.40;;;;;;;;;;5005602;28;20030;-77
2023/03/03 03:34:59;;;;;;;2.20;1.38;;;;;;;;;;5010841;28;20041;-76
2023/03/03 03:37:24;;;;;;;7.13;2.00;;;;;;;;;;5002191;28;20045;-76
2023/03/03 03:39:50;;;;;;;6.38;1.70;;;;;;;;;;5014691;28;20048;-76
2023/03/03 03:42:15;;;;;;;5.20;1.45;;;;;;;;;;5011158;28;20052;-77
2023/03/03 03:44:41;;;;;;;4.85;1.73;;;;;;;;;;5012956;28;20460;-76
2023/03/03 03:47:06;;;;;;;2.30;1.30;;;;;;;;;;5016069;28;20493;-77
2023/03/03 03:49:31;;;;;;;3.40;1.50;;;;;;;;;;5016535;28;20049;-77
2023/03/03 03:51:57;;;;;;;8.48;1.83;;;;;;;;;;5007644;28;20038;-76
2023/03/03 03:54:22;;;;;;;2.20;1.33;;;;;;;;;;5011339;28;20037;-76
2023/03/03 03:56:48;;;;;;;5.07;1.83;;;;;;;;;;5014756;28;20045;-76
2023/03/03 03:59:13;;;;;;;2.60;1.40;;;;;;;;;;5001273;28;20532;-77
2023/03/03 04:01:39;;;;;;;4.57;1.77;;;;;;;;;;5005639;28;20042;-76
2023/03/03 04:04:04;;;;;;;3.55;1.60;;;;;;;;;;5010003;28;20030;-77
2023/03/03 04:06:30;;;;;;;5.60;1.67;;;;;;;;;;5007730;28;20073;-77
2023/03/03 04:08:56;;;;;;;2.47;1.52;;;;;;;;;;5005759;28;20038;-76
2023/03/03 04:11:21;;;;;;;3.47;1.73;;;;;;;;;;5016094;28;20182;-76
2023/03/03 04:13:47;;;;;;;4.72;1.83;;;;;;;;;;5016322;28;20034;-76
2023/03/03 04:16:12;;;;;;;5.07;1.65;;;;;;;;;;5016000;28;20049;-76
2023/03/03 04:18:38;;;;;;;4.95;1.90;;;;;;;;;;5015927;28;20038;-76
2023/03/03 04:21:03;;;;;;;2.88;1.50;;;;;;;;;;5015914;28;20393;-77
2023/03/03 04:23:29;;;;;;;3.63;1.60;;;;;;;;;;5015839;28;20370;-78
2023/03/03 04:25:54;;;;;;;3.28;1.95;;;;;;;;;;5016251;28;20064;-76
2023/03/03 04:28:21;;;;;;;3.47;1.55;;;;;;;;;;5001624;28;20125;-76
2023/03/03 04:30:46;;;;;;;2.60;1.50;;;;;;;;;;5008352;28;20034;-76
2023/03/03 04:33:12;;;;;;;1.98;1.40;;;;;;;;;;5002544;28;20038;-76
2023/03/03 04:35:37;;;;;;;6.63;1.77;;;;;;;;;;5028588;28;20112;-76
2023/03/03 04:38:03;;;;;;;6.38;1.92;;;;;;;;;;4998903;28;20035;-78
2023/03/03 04:40:29;;;;;;;2.70;1.70;;;;;;;;;;5011508;28;20038;-77
2023/03/03 04:42:54;;;;;;;5.72;2.10;;;;;;;;;;4999465;28;20066;-76
2023/03/03 04:45:20;;;;;;;4.63;1.98;;;;;;;;;;5005276;28;20034;-76
2023/03/03 04:47:45;;;;;;;4.35;1.75;;;;;;;;;;5010153;28;20042;-76
2023/03/03 04:50:11;;;;;;;4.85;2.20;;;;;;;;;;5014916;28;20034;-77
2023/03/03 04:52:36;;;;;;;5.15;1.80;;;;;;;;;;5011497;28;20077;-76
2023/03/03 04:55:02;;;;;;;2.40;1.65;;;;;;;;;;5015426;28;20050;-76
2023/03/03 04:57:28;;;;;;;4.85;2.08;;;;;;;;;;5015439;28;20038;-76
2023/03/03 04:59:53;;;;;;;3.17;1.90;;;;;;;;;;5015261;28;20038;-77
2023/03/03 05:02:19;;;;;;;3.13;1.35;;;;;;;;;;5015062;28;20054;-76
2023/03/03 05:04:44;;;;;;;7.55;2.03;;;;;;;;;;5010888;28;20141;-76
2023/03/03 05:07:10;;;;;;;2.95;1.75;;;;;;;;;;5014911;28;20371;-76
2023/03/03 05:09:36;;;;;;;5.13;1.90;;;;;;;;;;5015424;28;20100;-76
2023/03/03 05:12:02;;;;;;;3.25;1.70;;;;;;;;;;5006594;28;20039;-76
2023/03/03 05:14:27;;;;;;;4.55;1.52;;;;;;;;;;5025298;28;20038;-77
2023/03/03 05:16:53;;;;;;;6.70;2.10;;;;;;;;;;5007266;28;20041;-76
2023/03/03 05:19:18;;;;;;;4.30;2.22;;;;;;;;;;5001759;28;20124;-76
2023/03/03 05:21:44;;;;;;;2.17;1.58;;;;;;;;;;5006357;28;20034;-76
2023/03/03 05:24:11;;;;;;;1.50;1.17;;;;;;;;;;5010263;28;20049;-76
2023/03/03 05:26:36;;;;;;;4.78;2.47;;;;;;;;;;4994166;28;20108;-76
2023/03/03 05:29:02;;;;;;;4.28;2.10;;;;;;;;;;5011289;28;20450;-75
2023/03/03 05:31:28;;;;;;;2.20;1.45;;;;;;;;;;5009617;28;20037;-77
2023/03/03 05:33:53;;;;;;;4.47;2.55;;;;;;;;;;5010661;28;20045;-75
2023/03/03 05:36:19;;;;;;;4.30;2.15;;;;;;;;;;5008865;28;20038;-76
2023/03/03 05:38:44;;;;;;;6.78;1.95;;;;;;;;;;5014883;28;20417;-76
2023/03/03 05:41:10;;;;;;;5.00;2.38;;;;;;;;;;5003330;28;20053;-77
2023/03/03 05:43:35;;;;;;;5.47;2.20;;;;;;;;;;5001867;28;20030;-76
2023/03/03 05:46:01;;;;;;;6.22;1.80;;;;;;;;;;5013567;28;20120;-76
2023/03/03 05:48:27;;;;;;;6.30;1.50;;;;;;;;;;5013348;28;20112;-76
2023/03/03 05:50:52;;;;;;;1.25;0.85;;;;;;;;;;5010964;28;20536;-76
2023/03/03 05:53:18;;;;;;;1.70;1.13;;;;;;;;;;5014203;28;20050;-76
2023/03/03 05:55:43;;;;;;;3.20;1.83;;;;;;;;;;5009863;28;20107;-76
2023/03/03 05:58:08;;;;;;;5.70;2.25;;;;;;;;;;4997985;28;20153;-76
2023/03/03 06:00:34;;;;;;;7.13;2.63;;;;;;;;;;5021739;28;20068;-76
2023/03/03 06:02:59;;;;;;;3.70;1.55;;;;;;;;;;5014248;28;20129;-76
2023/03/03 06:05:25;;;;;;;4.55;1.95;;;;;;;;;;5013843;28;20117;-76
2023/03/03 06:07:50;;;;;;;6.85;1.88;;;;;;;;;;5012732;28;20040;-78
2023/03/03 06:10:16;;;;;;;3.72;1.67;;;;;;;;;;5011555;28;20036;-76
2023/03/03 06:12:42;;;;;;;7.68;2.13;;;;;;;;;;5011615;28;20041;-76
2023/03/03 06:15:08;;;;;;;3.90;2.20;;;;;;;;;;5028820;28;20038;-77
2023/03/03 06:17:33;;;;;;;5.07;2.20;;;;;;;;;;5010672;28;20429;-76
2023/03/03 06:19:59;;;;;;;6.15;2.38;;;;;;;;;;5012485;28;20034;-76
2023/03/03 06:22:24;;;;;;;2.72;1.65;;;;;;;;;;5008009;28;20911;-76
2023/03/03 06:24:51;;;;;;;2.83;1.98;;;;;;;;;;5013847;28;20067;-76
2023/03/03 06:27:17;;;;;;;3.72;2.22;;;;;;;;;;5013915;28;20116;-76
2023/03/03 06:29:42;;;;;;;3.03;2.03;;;;;;;;;;5012240;28;20121;-76
2023/03/03 06:32:08;;;;;;;4.28;2.30;;;;;;;;;;5013447;28;20371;-76
2023/03/03 06:34:33;;;;;;;5.97;2.25;;;;;;;;;;5013352;28;20468;-76
2023/03/03 06:36:59;;;;;;;3.40;2.50;;;;;;;;;;5013623;28;20133;-75
2023/03/03 06:39:24;;;;;;;3.92;2.10;;;;;;;;;;5013572;28;20038;-75
2023/03/03 06:41:50;;;;;;;3.30;2.10;;;;;;;;;;5013525;28;20128;-76
2023/03/03 06:44:15;;;;;;;5.55;2.25;;;;;;;;;;5013136;28;20072;-76
2023/03/03 06:46:41;;;;;;;3.83;2.40;;;;;;;;;;5011516;28;20080;-76
2023/03/03 06:49:06;;;;;;;7.93;2.70;;;;;;;;;;5013402;28;20021;-77
2023/03/03 06:51:34;;;;;;;4.75;2.60;;;;;;;;;;5013173;28;20065;-76
2023/03/03 06:54:28;;;;;;;3.42;2.40;;;;;;;;;;5012336;28;20046;-76
2023/03/03 06:56:58;;;;;;;5.40;2.53;;;;;;;;;;5002111;28;20042;-76
2023/03/03 06:59:26;;;;;;;4.97;2.70;;;;;;;;;;5012132;28;20072;-77
2023/03/03 07:01:51;;;;;;;4.10;2.25;;;;;;;;;;5009389;28;20067;-76
2023/03/03 07:04:18;;;;;;;3.92;2.35;;;;;;;;;;5003788;28;20050;-76
2023/03/03 07:06:43;;;;;;;3.45;2.15;;;;;;;;;;5012166;28;20038;-76
2023/03/03 07:09:20;;;;;;;4.75;2.50;;;;;;;;;;5013226;28;20040;-76
2023/03/03 07:11:46;;;;;;;5.55;2.55;;;;;;;;;;5011524;28;20490;-76
2023/03/03 07:14:16;;;;;;;3.90;2.17;;;;;;;;;;5015301;28;20053;-77
2023/03/03 07:16:41;;;;;;;5.85;2.53;;;;;;;;;;5018465;28;20030;-76
2023/03/03 07:19:28;;;;;;;6.68;2.38;;;;;;;;;;5019355;28;20041;-77
2023/03/03 07:21:54;;;;;;;6.25;2.35;;;;;;;;;;5017795;28;20030;-78
2023/03/03 07:24:28;;;;;;;5.70;1.95;;;;;;;;;;5019590;28;20089;-76
2023/03/03 07:26:54;;;;;;;;;;;;;;;;;;5018744;28;20044;-77
2023/03/03 07:29:27;;;;;;;2.90;2.00;;;;;;;;;;5017998;28;19974;-78
2023/03/03 07:31:54;;;;;;;3.63;1.30;;;;;;;;;;5017062;28;20065;-79
2023/03/03 07:34:23;;;;;;;5.00;2.50;;;;;;;;;;5016359;28;20077;-76
2023/03/03 07:36:51;;;;;;;5.22;2.50;;;;;;;;;;5017301;28;20064;-77
2023/03/03 07:39:22;;;;;;;7.38;3.45;;;;;;;;;;5017003;28;20057;-76
2023/03/03 07:41:48;;;;;;;4.13;1.70;;;;;;;;;;5014640;28;20116;-76
2023/03/03 07:44:30;;;;;;;5.43;1.90;;;;;;;;;;5005916;28;20121;-76
2023/03/03 07:46:56;;;;;;;2.20;1.35;;;;;;;;;;5012859;28;20117;-76
2023/03/03 07:49:22;;;;;;;4.15;2.15;;;;;;;;;;5017831;28;20464;-76
2023/03/03 07:51:52;;;;;;;3.30;1.98;;;;;;;;;;5017904;28;20512;-77
2023/03/03 07:54:36;;;;;;;3.58;1.77;;;;;;;;;;5034788;28;20037;-76
2023/03/03 07:57:14;;;;;;;4.82;2.60;;;;;;;;;;5003588;28;20046;-77
2023/03/03 08:00:08;;;;;;;3.08;2.15;;;;;;;;;;5015579;28;20062;-76
2023/03/03 08:02:40;;;;;;;;;;;;;;;;;;5008929;28;20129;-76
2023/03/03 08:05:37;;;;;;;5.05;1.92;;;;;;;;;;5018265;28;19923;-77
2023/03/03 08:08:12;;;;;;;4.07;2.20;;;;;;;;;;5012688;28;20046;-77
2023/03/03 08:10:58;;;;;;;4.18;2.25;;;;;;;;;;5019156;28;20417;-76
2023/03/03 08:13:43;;;;;;;4.30;2.20;;;;;;;;;;5017220;28;20048;-76
2023/03/03 08:16:09;;;;;;;3.38;1.95;;;;;;;;;;5029225;28;20153;-77
2023/03/03 08:18:45;;;;;;;3.15;1.67;;;;;;;;;;5013046;28;20508;-76
2023/03/03 08:21:14;;;;;;;4.57;2.30;;;;;;;;;;5025074;28;20038;-76
2023/03/03 08:23:40;;;;;;;6.05;2.83;;;;;;;;;;5018449;28;20513;-76
2023/03/03 08:26:06;;;;;;;4.47;2.58;;;;;;;;;;5008860;28;20062;-77
2023/03/03 08:28:31;;;;;;;6.95;2.40;;;;;;;;;;5004995;28;20044;-77
2023/03/03 08:30:57;;;;;;;3.47;2.03;;;;;;;;;;5014965;28;20041;-77
2023/03/03 08:33:22;;;;;;;2.97;1.55;;;;;;;;;;5011840;28;20486;-77
2023/03/03 08:35:48;;;;;;;5.10;2.35;;;;;;;;;;5020794;28;20577;-76
2023/03/03 08:38:16;;;;;;;4.03;2.25;;;;;;;;;;4995104;28;20117;-76
2023/03/03 08:40:42;;;;;;;3.97;2.30;;;;;;;;;;4997584;28;20393;-76
2023/03/03 08:43:08;;;;;;;3.92;2.13;;;;;;;;;;5010433;28;20088;-76
2023/03/03 08:45:34;;;;;;;3.17;2.10;;;;;;;;;;5000943;28;20046;-76
2023/03/03 08:48:00;;;;;;;4.50;2.65;;;;;;;;;;5009926;28;20034;-77
2023/03/03 08:50:27;;;;;;;4.40;2.33;;;;;;;;;;5009114;28;20041;-76
2023/03/03 08:52:52;;;;;;;6.72;2.42;;;;;;;;;;5006367;28;20054;-76
2023/03/03 08:55:17;;;;;;;4.97;2.03;;;;;;;;;;5013166;28;20088;-76
2023/03/03 08:57:43;;;;;;;3.95;2.63;;;;;;;;;;5030127;28;20044;-76
2023/03/03 09:00:12;;;;;;;5.75;2.78;;;;;;;;;;5013272;28;20113;-76
2023/03/03 09:02:38;;;;;;;4.63;1.98;;;;;;;;;;4995447;28;20045;-76
2023/03/03 09:05:04;;;;;;;4.53;2.30;;;;;;;;;;5008311;28;20038;-76
2023/03/03 09:07:29;;;;;;;4.10;2.58;;;;;;;;;;5007758;28;20042;-76
2023/03/03 09:09:55;;;;;;;5.40;2.70;;;;;;;;;;5006552;28;20048;-75
2023/03/03 09:12:32;;;;;;;5.80;2.80;;;;;;;;;;5002162;28;20042;-76
2023/03/03 09:14:59;;;;;;;3.65;2.30;;;;;;;;;;5010880;28;20045;-76
2023/03/03 09:17:33;;;;;;;7.53;2.72;;;;;;;;;;4998005;28;20053;-76
2023/03/03 09:20:02;;;;;;;6.35;2.50;;;;;;;;;;5002223;28;20050;-77
2023/03/03 09:22:28;;;;;;;3.63;2.20;;;;;;;;;;5010956;28;20509;-77
2023/03/03 09:24:57;;;;;;;3.13;2.08;;;;;;;;;;5009392;28;20030;-76
2023/03/03 09:27:30;;;;;;;3.72;2.28;;;;;;;;;;4997687;28;20076;-77
2023/03/03 09:30:19;;;;;;;4.65;2.75;;;;;;;;;;5025654;28;20053;-76
2023/03/03 09:32:44;;;;;;;6.20;2.90;;;;;;;;;;5006049;28;20473;-76
2023/03/03 09:35:36;;;;;;;5.18;2.45;;;;;;;;;;5003248;28;20042;-76
2023/03/03 09:38:12;;;;;;;4.40;2.30;;;;;;;;;;5003801;28;20038;-76
2023/03/03 09:40:44;;;;;;;3.25;1.65;;;;;;;;;;5022845;28;20061;-76
2023/03/03 09:43:36;;;;;;;6.25;2.53;;;;;;;;;;5006232;28;20061;-76
2023/03/03 09:46:26;;;;;;;2.17;1.38;;;;;;;;;;4988439;28;20978;-76
2023/03/03 09:49:02;;;;;;;2.97;1.52;;;;;;;;;;5008499;28;20053;-76
2023/03/03 09:51:51;;;;;;;3.35;1.77;;;;;;;;;;5023752;28;20091;-76
2023/03/03 09:54:27;;;;;;;2.60;1.75;;;;;;;;;;5010313;28;20037;-76
2023/03/03 09:57:11;;;;;;;4.78;2.30;;;;;;;;;;5004178;28;20033;-76
2023/03/03 09:59:54;;;;;;;4.95;2.30;;;;;;;;;;5025072;28;20029;-76
2023/03/03 10:02:35;;;;;;;3.42;2.00;;;;;;;;;;5010350;28;20046;-75
2023/03/03 10:05:21;;;;;;;4.55;1.65;;;;;;;;;;5009333;28;20053;-76
2023/03/03 10:08:30;;;;;;;3.72;1.83;;;;;;;;;;4998148;28;20266;-76
2023/03/03 10:11:13;;;;;;;5.85;1.90;;;;;;;;;;5005077;28;20054;-76
2023/03/03 10:13:53;;;;;;;3.80;1.97;;;;;;;;;;5009579;28;20050;-76
2023/03/03 10:16:19;;;;;;;2.75;1.55;;;;;;;;;;5001013;28;20267;-77
2023/03/03 10:19:19;;;;;;;2.88;1.90;;;;;;;;;;4999501;28;20038;-76
2023/03/03 10:22:10;;;;;;;4.25;1.52;;;;;;;;;;4993129;28;20092;-77
2023/03/03 10:25:07;;;;;;;1.73;1.23;;;;;;;;;;5009937;28;20040;-76
2023/03/03 10:27:48;;;;;;;2.75;1.55;;;;;;;;;;4991278;28;20042;-77
2023/03/03 10:30:52;;;;;;;5.28;1.70;;;;;;;;;;5004575;28;20095;-77
2023/03/03 10:33:26;;;;;;;2.30;1.33;;;;;;;;;;4997177;28;20163;-75
2023/03/03 10:35:55;;;;;;;3.13;1.63;;;;;;;;;;5006900;28;20042;-77
2023/03/03 10:38:34;;;;;;;3.38;1.48;;;;;;;;;;4999476;28;20084;-76
2023/03/03 10:41:14;;;;;;;3.42;1.75;;;;;;;;;;5004602;28;20038;-77
2023/03/03 10:43:51;;;;;;;1.67;1.00;;;;;;;;;;5002673;28;20505;-76
2023/03/03 10:46:31;;;;;;;2.40;0.90;;;;;;;;;;5004465;28;20034;-76
2023/03/03 10:49:32;;;;;;;2.80;1.00;;;;;;;;;;5005107;28;20049;-76
2023/03/03 10:52:22;;;;;;;1.60;0.75;;;;;;;;;;4997411;28;20060;-76
2023/03/03 10:55:07;;;;;;;3.83;0.90;;;;;;;;;;5002007;28;20136;-76
2023/03/03 10:57:57;;;;;;;3.28;1.00;;;;;;;;;;5001304;28;20034;-76
2023/03/03 11:00:58;;;;;;;0.85;0.75;;;;;;;;;;5004744;28;20084;-76
2023/03/03 11:03:41;;;;;;;2.40;1.27;;;;;;;;;;4992589;28;20082;-76
2023/03/03 11:06:21;;;;;;;2.85;1.48;;;;;;;;;;4998549;28;20877;-77
2023/03/03 11:09:02;;;;;;;2.20;1.10;;;;;;;;;;4995268;28;20478;-76
2023/03/03 11:11:48;;;;;;;2.45;1.20;;;;;;;;;;5014457;28;20390;-77
2023/03/03 11:14:24;;;;;;;3.58;1.10;;;;;;;;;;5008171;28;20478;-77
2023/03/03 11:16:57;;;;;;;2.03;1.10;;;;;;;;;;5008604;28;20030;-76
2023/03/03 11:19:45;;;;;;;3.03;0.80;;;;;;;;;;5008808;28;20369;-76
2023/03/03 11:22:44;;;;;;;2.10;1.00;;;;;;;;;;4988148;28;20069;-77
2023/03/03 11:25:47;;;;;;;1.58;0.75;;;;;;;;;;5008742;28;20044;-76
2023/03/03 11:28:21;;;;;;;8.80;1.85;;;;;;;;;;4998079;28;20040;-76
2023/03/03 11:31:09;;;;;;;3.28;0.90;;;;;;;;;;4993873;28;20115;-77
2023/03/03 11:33:59;;;;;;;2.85;1.27;;;;;;;;;;5024081;28;20025;-76
2023/03/03 11:36:38;;;;;;;2.20;1.10;;;;;;;;;;4999442;28;20044;-76
2023/03/03 11:39:08;;;;;;;2.92;1.40;;;;;;;;;;5007336;28;20030;-76
2023/03/03 11:41:57;;;;;;;1.77;0.90;;;;;;;;;;4999272;28;20109;-76
2023/03/03 11:44:36;;;;;;;3.97;1.20;;;;;;;;;;5000620;28;20044;-76
2023/03/03 11:47:11;;;;;;;2.35;1.20;;;;;;;;;;5004645;28;20064;-76
2023/03/03 11:49:46;;;;;;;2.72;1.35;;;;;;;;;;5001394;28;20108;-76
2023/03/03 11:52:42;;;;;;;4.20;1.67;;;;;;;;;;5006455;28;20060;-77
2023/03/03 11:55:39;;;;;;;2.35;1.48;;;;;;;;;;5007704;28;20030;-76
2023/03/03 11:58:23;;;;;;;1.80;1.30;;;;;;;;;;5008932;28;20060;-76
2023/03/03 12:01:17;;;;;;;2.10;1.20;;;;;;;;;;5010493;28;20108;-76
2023/03/03 12:03:47;;;;;;;3.40;1.23;;;;;;;;;;5001047;28;20029;-77
2023/03/03 12:06:19;;;;;;;3.40;1.55;;;;;;;;;;5003839;28;20088;-77
2023/03/03 12:09:03;;;;;;;2.38;1.50;;;;;;;;;;5012992;28;20034;-77
2023/03/03 12:11:40;;;;;;;3.65;2.00;;;;;;;;;;5011986;28;20393;-76
2023/03/03 12:14:47;;;;;;;4.13;1.80;;;;;;;;;;5012151;28;20038;-76
2023/03/03 12:17:44;;;;;;;5.47;2.25;;;;;;;;;;4985537;28;20105;-76
2023/03/03 12:20:21;;;;;;;3.20;1.50;;;;;;;;;;4974264;28;20046;-76
2023/03/03 12:23:14;;;;;;;6.72;3.05;;;;;;;;;;5000647;28;20080;-76
2023/03/03 12:25:43;;;;;;;7.68;2.85;;;;;;;;;;5012468;28;20042;-76
2023/03/03 12:28:28;;;;;;;5.30;2.40;;;;;;;;;;5027889;28;20034;-76
2023/03/03 12:31:04;;;;;;;4.97;2.92;;;;;;;;;;5005350;28;20094;-76
2023/03/03 12:33:55;;;;;;;6.75;3.42;;;;;;;;;;5021392;28;20030;-76
2023/03/03 12:36:36;;;;;;;5.18;3.40;;;;;;;;;;4999643;28;20050;-76
2023/03/03 12:39:07;;;;;;;7.97;4.13;;;;;;;;;;5013162;28;20363;-76
2023/03/03 12:41:47;;;;;;;8.90;4.57;;;;;;;;;;5014725;28;20470;-76
2023/03/03 12:44:42;;;;;;;10.52;4.53;;;;;;;;;;5012147;28;20044;-75
2023/03/03 12:47:18;;;;;;;7.65;4.43;;;;;;;;;;5000129;28;20049;-77
2023/03/03 12:50:05;;;;;;;6.57;3.72;;;;;;;;;;5011889;28;20026;-76
2023/03/03 12:53:09;;;;;;;6.30;3.95;;;;;;;;;;5007897;28;20045;-76
2023/03/03 12:55:49;;;;;;;8.23;3.97;;;;;;;;;;5000603;28;20034;-76
2023/03/03 12:58:39;;;;;;;10.65;4.65;;;;;;;;;;5026892;28;20045;-77
2023/03/03 13:01:16;;;;;;;9.63;5.13;;;;;;;;;;5011652;28;20045;-76
2023/03/03 13:04:28;;;;;;;7.93;4.82;;;;;;;;;;5003901;28;20394;-75
2023/03/03 13:07:06;;;;;;;9.10;4.10;;;;;;;;;;4969245;28;20138;-76
2023/03/03 13:09:41;;;;;;;6.28;3.85;;;;;;;;;;4961411;28;20059;-76
2023/03/03 13:12:27;;;;;;;7.90;4.38;;;;;;;;;;4990256;28;20042;-76
2023/03/03 13:14:53;;;;;;;8.05;4.38;;;;;;;;;;5002022;28;20038;-77
2023/03/03 13:17:39;;;;;;;7.07;3.97;;;;;;;;;;5007257;28;20052;-76
2023/03/03 13:20:19;;;;;;;8.52;4.65;;;;;;;;;;5005049;28;20548;-76
2023/03/03 13:23:09;;;;;;;9.45;4.25;;;;;;;;;;5000217;28;20058;-76
2023/03/03 13:25:44;;;;;;;8.98;4.90;;;;;;;;;;5002247;28;20552;-76
2023/03/03 13:28:41;;;;;;;6.25;3.60;;;;;;;;;;4998109;28;20026;-76
2023/03/03 13:31:22;;;;;;;8.98;4.50;;;;;;;;;;5004126;28;20046;-76
2023/03/03 13:33:59;;;;;;;8.70;4.60;;;;;;;;;;4995211;28;20037;-76
2023/03/03 13:36:30;;;;;;;7.50;4.35;;;;;;;;;;5010777;28;20141;-76
2023/03/03 13:39:13;;;;;;;8.98;4.95;;;;;;;;;;5003865;28;20030;-76
2023/03/03 13:41:47;;;;;;;9.70;5.00;;;;;;;;;;5024339;28;20038;-78
2023/03/03 13:44:18;;;;;;;9.65;5.00;;;;;;;;;;4994951;28;20802;-76
2023/03/03 13:47:01;;;;;;;9.13;5.55;;;;;;;;;;5003626;28;20026;-77
2023/03/03 13:49:46;;;;;;;11.20;5.13;;;;;;;;;;5001277;28;20176;-76
2023/03/03 13:52:14;;;;;;;5.93;4.20;;;;;;;;;;5002626;28;20049;-76
2023/03/03 13:54:56;;;;;;;8.23;5.55;;;;;;;;;;5002421;28;20546;-76
2023/03/03 13:57:36;;;;;;;9.45;5.80;;;;;;;;;;5005443;28;20041;-76
2023/03/03 14:00:17;;;;;;;9.60;6.20;;;;;;;;;;5000563;28;20038;-76
2023/03/03 14:02:52;;;;;;;9.23;5.18;;;;;;;;;;5010844;28;20041;-75
2023/03/03 14:05:26;;;;;;;8.77;6.13;;;;;;;;;;5005586;28;20029;-77
2023/03/03 14:08:14;;;;;;;7.35;5.25;;;;;;;;;;5001669;28;20108;-76
2023/03/03 14:10:45;;;;;;;8.65;4.35;;;;;;;;;;5003847;28;20052;-76
2023/03/03 14:13:12;;;;;;;7.82;4.35;;;;;;;;;;4990863;28;20050;-76
2023/03/03 14:15:53;;;;;;;8.68;4.85;;;;;;;;;;5020899;28;20025;-76
2023/03/03 14:18:32;;;;;;;11.27;5.15;;;;;;;;;;4995724;28;20036;-77
2023/03/03 14:21:06;;;;;;;9.93;5.70;;;;;;;;;;4995185;28;20038;-76
2023/03/03 14:24:10;;;;;;;9.18;5.70;;;;;;;;;;5008433;28;20052;-76
2023/03/03 14:26:56;;;;;;;10.63;5.03;;;;;;;;;;4987719;28;20113;-76
2023/03/03 14:29:21;;;;;;;8.88;5.60;;;;;;;;;;4991076;28;20382;-75
2023/03/03 14:31:47;;;;;;;11.20;5.82;;;;;;;;;;5003828;28;20525;-76
2023/03/03 14:34:21;;;;;;;8.45;5.53;;;;;;;;;;5009228;28;20038;-76
2023/03/03 14:36:48;;;;;;;9.75;6.93;;;;;;;;;;5006938;28;20054;-76
2023/03/03 14:39:33;;;;;;;12.15;6.50;;;;;;;;;;5007655;28;20445;-76
2023/03/03 14:42:00;;;;;;;9.32;6.10;;;;;;;;;;4993974;28;20050;-76
2023/03/03 14:44:26;;;;;;;10.20;6.25;;;;;;;;;;5018026;28;20048;-75
2023/03/03 14:47:10;;;;;;;8.05;5.50;;;;;;;;;;5000749;28;20038;-76
2023/03/03 14:49:37;;;;;;;9.93;6.10;;;;;;;;;;4995715;28;20041;-76
2023/03/03 14:52:13;;;;;;;9.90;5.82;;;;;;;;;;5023588;28;20058;-76
2023/03/03 14:54:45;;;;;;;12.07;5.95;;;;;;;;;;4995736;28;20088;-76
2023/03/03 14:57:19;;;;;;;11.27;6.63;;;;;;;;;;5002485;28;20077;-76
2023/03/03 15:00:09;;;;;;;8.73;5.00;;;;;;;;;;5009282;28;20116;-76
2023/03/03 15:02:55;;;;;;;12.02;6.70;;;;;;;;;;5007592;28;20021;-77
2023/03/03 15:05:24;;;;;;;12.10;7.00;;;;;;;;;;5002150;28;20050;-76
2023/03/03 15:08:07;;;;;;;12.00;5.03;;;;;;;;;;5008941;28;20034;-76
2023/03/03 15:10:33;;;;;;;10.80;7.30;;;;;;;;;;5006440;28;20037;-76
2023/03/03 15:13:09;;;;;;;13.27;7.30;;;;;;;;;;5010511;28;20386;-76
2023/03/03 15:15:34;;;;;;;9.32;5.75;;;;;;;;;;5001239;28;20433;-76
2023/03/03 15:18:12;;;;;;;10.73;5.95;;;;;;;;;;5004474;28;20169;-76